sensor_id;sensor_type;location;lat;lon;timestamp;P1;durP1;ratioP1;P2;durP2;ratioP2
1509;SDS011;746;48.688;9.428;2023-07-20T00:01:27;5.23;;;2.63;;
1509;SDS011;746;48.688;9.428;2023-07-20T00:03:49;3.23;;;2.90;;
1509;SDS011;746;48.688;9.428;2023-07-20T00:06:16;4.33;;;2.80;;
1509;SDS011;746;48.688;9.428;2023-07-20T00:08:37;7.93;;;2.93;;
1509;SDS011;746;48.688;9.428;2023-07-20T00:10:59;3.13;;;2.83;;
1509;SDS011;746;48.688;9.428;2023-07-20T00:13:20;3.27;;;2.90;;
1509;SDS011;746;48.688;9.428;2023-07-20T00:15:42;3.37;;;2.80;;
1509;SDS011;746;48.688;9.428;2023-07-20T00:18:03;2.73;;;2.53;;
1509;SDS011;746;48.688;9.428;2023-07-20T00:20:25;5.67;;;2.70;;
1509;SDS011;746;48.688;9.428;2023-07-20T00:22:47;4.60;;;2.93;;
1509;SDS011;746;48.688;9.428;2023-07-20T00:25:10;5.37;;;3.10;;
1509;SDS011;746;48.688;9.428;2023-07-20T00:27:32;3.00;;;2.70;;
1509;SDS011;746;48.688;9.428;2023-07-20T00:29:53;2.93;;;2.73;;
1509;SDS011;746;48.688;9.428;2023-07-20T00:32:14;4.17;;;2.73;;
1509;SDS011;746;48.688;9.428;2023-07-20T00:34:35;3.97;;;3.13;;
1509;SDS011;746;48.688;9.428;2023-07-20T00:36:57;5.60;;;2.80;;
1509;SDS011;746;48.688;9.428;2023-07-20T00:39:20;4.43;;;3.03;;
1509;SDS011;746;48.688;9.428;2023-07-20T00:41:41;2.80;;;2.60;;
1509;SDS011;746;48.688;9.428;2023-07-20T00:44:02;3.63;;;3.23;;
1509;SDS011;746;48.688;9.428;2023-07-20T00:46:24;3.30;;;2.50;;
1509;SDS011;746;48.688;9.428;2023-07-20T00:48:46;2.60;;;2.40;;
1509;SDS011;746;48.688;9.428;2023-07-20T00:51:07;6.30;;;2.60;;
1509;SDS011;746;48.688;9.428;2023-07-20T00:53:28;3.10;;;2.63;;
1509;SDS011;746;48.688;9.428;2023-07-20T00:55:51;2.60;;;2.40;;
1509;SDS011;746;48.688;9.428;2023-07-20T00:58:12;3.13;;;2.87;;
1509;SDS011;746;48.688;9.428;2023-07-20T01:00:33;2.53;;;2.33;;
1509;SDS011;746;48.688;9.428;2023-07-20T01:02:55;3.73;;;2.80;;
1509;SDS011;746;48.688;9.428;2023-07-20T01:05:15;3.03;;;2.70;;
1509;SDS011;746;48.688;9.428;2023-07-20T01:07:38;3.20;;;2.80;;
1509;SDS011;746;48.688;9.428;2023-07-20T01:10:08;3.47;;;3.03;;
1509;SDS011;746;48.688;9.428;2023-07-20T01:12:35;3.10;;;2.80;;
1509;SDS011;746;48.688;9.428;2023-07-20T01:14:56;5.40;;;2.80;;
1509;SDS011;746;48.688;9.428;2023-07-20T01:17:18;6.00;;;2.87;;
1509;SDS011;746;48.688;9.428;2023-07-20T01:19:39;4.33;;;2.87;;
1509;SDS011;746;48.688;9.428;2023-07-20T01:22:02;2.90;;;2.73;;
1509;SDS011;746;48.688;9.428;2023-07-20T01:24:32;3.90;;;2.90;;
1509;SDS011;746;48.688;9.428;2023-07-20T01:29:43;3.13;;;2.83;;
1509;SDS011;746;48.688;9.428;2023-07-20T01:32:09;4.30;;;3.20;;
1509;SDS011;746;48.688;9.428;2023-07-20T01:34:30;4.53;;;2.83;;
1509;SDS011;746;48.688;9.428;2023-07-20T01:36:53;2.70;;;2.50;;
1509;SDS011;746;48.688;9.428;2023-07-20T01:39:15;5.50;;;3.10;;
1509;SDS011;746;48.688;9.428;2023-07-20T01:41:36;5.00;;;3.00;;
1509;SDS011;746;48.688;9.428;2023-07-20T01:43:58;6.07;;;2.80;;
1509;SDS011;746;48.688;9.428;2023-07-20T01:46:20;3.67;;;2.67;;
1509;SDS011;746;48.688;9.428;2023-07-20T01:48:43;3.37;;;3.13;;
1509;SDS011;746;48.688;9.428;2023-07-20T01:51:04;3.13;;;2.80;;
1509;SDS011;746;48.688;9.428;2023-07-20T01:53:25;2.97;;;2.70;;
1509;SDS011;746;48.688;9.428;2023-07-20T01:55:46;3.83;;;2.80;;
1509;SDS011;746;48.688;9.428;2023-07-20T01:58:08;2.97;;;2.77;;
1509;SDS011;746;48.688;9.428;2023-07-20T02:00:29;3.07;;;2.80;;
1509;SDS011;746;48.688;9.428;2023-07-20T02:02:51;2.90;;;2.70;;
1509;SDS011;746;48.688;9.428;2023-07-20T02:05:13;3.07;;;2.87;;
1509;SDS011;746;48.688;9.428;2023-07-20T02:07:35;2.73;;;2.37;;
1509;SDS011;746;48.688;9.428;2023-07-20T02:09:56;3.83;;;3.00;;
1509;SDS011;746;48.688;9.428;2023-07-20T02:12:17;2.63;;;2.43;;
1509;SDS011;746;48.688;9.428;2023-07-20T02:14:39;4.10;;;3.00;;
1509;SDS011;746;48.688;9.428;2023-07-20T02:17:00;5.10;;;3.13;;
1509;SDS011;746;48.688;9.428;2023-07-20T02:19:22;3.17;;;2.80;;
1509;SDS011;746;48.688;9.428;2023-07-20T02:21:45;3.00;;;2.60;;
1509;SDS011;746;48.688;9.428;2023-07-20T02:24:06;3.20;;;2.90;;
1509;SDS011;746;48.688;9.428;2023-07-20T02:26:27;2.77;;;2.57;;
1509;SDS011;746;48.688;9.428;2023-07-20T02:28:49;5.43;;;3.00;;
1509;SDS011;746;48.688;9.428;2023-07-20T02:31:10;4.07;;;2.97;;
1509;SDS011;746;48.688;9.428;2023-07-20T02:33:31;3.70;;;2.47;;
1509;SDS011;746;48.688;9.428;2023-07-20T02:35:52;3.73;;;2.40;;
1509;SDS011;746;48.688;9.428;2023-07-20T02:38:15;3.00;;;2.70;;
1509;SDS011;746;48.688;9.428;2023-07-20T02:40:36;3.67;;;2.93;;
1509;SDS011;746;48.688;9.428;2023-07-20T02:42:58;3.37;;;2.80;;
1509;SDS011;746;48.688;9.428;2023-07-20T02:45:20;3.17;;;2.90;;
1509;SDS011;746;48.688;9.428;2023-07-20T02:47:41;3.73;;;2.90;;
1509;SDS011;746;48.688;9.428;2023-07-20T02:50:02;5.10;;;3.30;;
1509;SDS011;746;48.688;9.428;2023-07-20T02:52:24;6.00;;;3.03;;
1509;SDS011;746;48.688;9.428;2023-07-20T02:54:47;7.40;;;3.43;;
1509;SDS011;746;48.688;9.428;2023-07-20T02:57:08;5.83;;;3.07;;
1509;SDS011;746;48.688;9.428;2023-07-20T02:59:29;5.93;;;2.97;;
1509;SDS011;746;48.688;9.428;2023-07-20T03:01:51;3.33;;;2.90;;
1509;SDS011;746;48.688;9.428;2023-07-20T03:04:12;4.83;;;2.90;;
1509;SDS011;746;48.688;9.428;2023-07-20T03:06:34;3.30;;;2.83;;
1509;SDS011;746;48.688;9.428;2023-07-20T03:08:56;4.50;;;3.00;;
1509;SDS011;746;48.688;9.428;2023-07-20T03:11:19;2.90;;;2.70;;
1509;SDS011;746;48.688;9.428;2023-07-20T03:13:41;3.93;;;2.90;;
1509;SDS011;746;48.688;9.428;2023-07-20T03:16:02;3.13;;;2.90;;
1509;SDS011;746;48.688;9.428;2023-07-20T03:18:23;3.43;;;3.00;;
1509;SDS011;746;48.688;9.428;2023-07-20T03:20:44;3.10;;;2.90;;
1509;SDS011;746;48.688;9.428;2023-07-20T03:23:06;3.00;;;2.70;;
1509;SDS011;746;48.688;9.428;2023-07-20T03:25:27;2.73;;;2.60;;
1509;SDS011;746;48.688;9.428;2023-07-20T03:27:50;3.27;;;3.03;;
1509;SDS011;746;48.688;9.428;2023-07-20T03:30:12;3.47;;;2.77;;
1509;SDS011;746;48.688;9.428;2023-07-20T03:32:33;5.00;;;3.33;;
1509;SDS011;746;48.688;9.428;2023-07-20T03:34:54;4.17;;;3.13;;
1509;SDS011;746;48.688;9.428;2023-07-20T03:37:16;3.50;;;3.20;;
1509;SDS011;746;48.688;9.428;2023-07-20T03:39:37;5.87;;;3.27;;
1509;SDS011;746;48.688;9.428;2023-07-20T03:41:58;3.20;;;3.00;;
1509;SDS011;746;48.688;9.428;2023-07-20T03:44:21;4.90;;;3.10;;
1509;SDS011;746;48.688;9.428;2023-07-20T03:46:43;3.47;;;3.17;;
1509;SDS011;746;48.688;9.428;2023-07-20T03:49:04;3.20;;;2.90;;
1509;SDS011;746;48.688;9.428;2023-07-20T03:51:26;3.77;;;3.07;;
1509;SDS011;746;48.688;9.428;2023-07-20T03:53:47;3.23;;;2.97;;
1509;SDS011;746;48.688;9.428;2023-07-20T03:56:09;3.77;;;2.90;;
1509;SDS011;746;48.688;9.428;2023-07-20T03:58:30;3.17;;;2.90;;
1509;SDS011;746;48.688;9.428;2023-07-20T04:00:53;3.43;;;3.13;;
1509;SDS011;746;48.688;9.428;2023-07-20T04:03:14;3.30;;;3.10;;
1509;SDS011;746;48.688;9.428;2023-07-20T04:05:36;3.30;;;3.00;;
1509;SDS011;746;48.688;9.428;2023-07-20T04:07:58;3.43;;;2.90;;
1509;SDS011;746;48.688;9.428;2023-07-20T04:10:19;3.43;;;3.10;;
1509;SDS011;746;48.688;9.428;2023-07-20T04:12:41;4.73;;;3.07;;
1509;SDS011;746;48.688;9.428;2023-07-20T04:15:03;3.40;;;3.17;;
1509;SDS011;746;48.688;9.428;2023-07-20T04:17:26;5.10;;;3.07;;
1509;SDS011;746;48.688;9.428;2023-07-20T04:19:48;3.60;;;3.30;;
1509;SDS011;746;48.688;9.428;2023-07-20T04:22:09;3.93;;;3.40;;
1509;SDS011;746;48.688;9.428;2023-07-20T04:24:30;3.13;;;2.93;;
1509;SDS011;746;48.688;9.428;2023-07-20T04:26:52;3.17;;;2.97;;
1509;SDS011;746;48.688;9.428;2023-07-20T04:29:13;4.83;;;3.30;;
1509;SDS011;746;48.688;9.428;2023-07-20T04:31:34;3.20;;;2.90;;
1509;SDS011;746;48.688;9.428;2023-07-20T04:33:57;3.40;;;2.93;;
1509;SDS011;746;48.688;9.428;2023-07-20T04:36:18;3.30;;;3.00;;
1509;SDS011;746;48.688;9.428;2023-07-20T04:38:41;3.97;;;3.17;;
1509;SDS011;746;48.688;9.428;2023-07-20T04:41:02;3.03;;;2.83;;
1509;SDS011;746;48.688;9.428;2023-07-20T04:43:23;3.00;;;2.80;;
1509;SDS011;746;48.688;9.428;2023-07-20T04:45:45;7.40;;;2.90;;
1509;SDS011;746;48.688;9.428;2023-07-20T04:48:08;3.30;;;3.00;;
1509;SDS011;746;48.688;9.428;2023-07-20T04:50:31;3.13;;;2.83;;
1509;SDS011;746;48.688;9.428;2023-07-20T04:52:52;3.67;;;3.20;;
1509;SDS011;746;48.688;9.428;2023-07-20T04:55:13;4.87;;;3.50;;
1509;SDS011;746;48.688;9.428;2023-07-20T04:57:34;3.60;;;3.30;;
1509;SDS011;746;48.688;9.428;2023-07-20T04:59:56;6.67;;;3.10;;
1509;SDS011;746;48.688;9.428;2023-07-20T05:02:17;4.60;;;3.20;;
1509;SDS011;746;48.688;9.428;2023-07-20T05:04:38;3.43;;;3.13;;
1509;SDS011;746;48.688;9.428;2023-07-20T05:07:01;4.40;;;3.10;;
1509;SDS011;746;48.688;9.428;2023-07-20T05:09:22;4.07;;;3.20;;
1509;SDS011;746;48.688;9.428;2023-07-20T05:11:43;3.47;;;2.90;;
1509;SDS011;746;48.688;9.428;2023-07-20T05:14:07;5.87;;;3.10;;
1509;SDS011;746;48.688;9.428;2023-07-20T05:16:28;3.37;;;3.07;;
1509;SDS011;746;48.688;9.428;2023-07-20T05:18:50;3.20;;;3.00;;
1509;SDS011;746;48.688;9.428;2023-07-20T05:21:11;3.07;;;2.87;;
1509;SDS011;746;48.688;9.428;2023-07-20T05:23:33;3.73;;;3.23;;
1509;SDS011;746;48.688;9.428;2023-07-20T05:25:55;5.90;;;3.53;;
1509;SDS011;746;48.688;9.428;2023-07-20T05:28:17;3.57;;;3.00;;
1509;SDS011;746;48.688;9.428;2023-07-20T05:30:39;4.37;;;3.17;;
1509;SDS011;746;48.688;9.428;2023-07-20T05:33:00;3.23;;;2.93;;
1509;SDS011;746;48.688;9.428;2023-07-20T05:35:22;3.70;;;3.40;;
1509;SDS011;746;48.688;9.428;2023-07-20T05:37:43;4.70;;;3.37;;
1509;SDS011;746;48.688;9.428;2023-07-20T05:40:06;3.87;;;3.50;;
1509;SDS011;746;48.688;9.428;2023-07-20T05:42:30;5.67;;;3.30;;
1509;SDS011;746;48.688;9.428;2023-07-20T05:44:51;4.17;;;3.23;;
1509;SDS011;746;48.688;9.428;2023-07-20T05:47:14;5.77;;;3.50;;
1509;SDS011;746;48.688;9.428;2023-07-20T05:49:35;3.70;;;3.40;;
1509;SDS011;746;48.688;9.428;2023-07-20T05:51:56;3.83;;;3.43;;
1509;SDS011;746;48.688;9.428;2023-07-20T05:54:18;4.37;;;3.10;;
1509;SDS011;746;48.688;9.428;2023-07-20T05:56:41;5.10;;;3.30;;
1509;SDS011;746;48.688;9.428;2023-07-20T05:59:02;3.67;;;3.37;;
1509;SDS011;746;48.688;9.428;2023-07-20T06:01:24;3.70;;;3.40;;
1509;SDS011;746;48.688;9.428;2023-07-20T06:03:47;3.80;;;3.50;;
1509;SDS011;746;48.688;9.428;2023-07-20T06:06:08;4.03;;;3.23;;
1509;SDS011;746;48.688;9.428;2023-07-20T06:08:32;3.53;;;3.23;;
1509;SDS011;746;48.688;9.428;2023-07-20T06:10:53;4.30;;;3.57;;
1509;SDS011;746;48.688;9.428;2023-07-20T06:13:16;5.07;;;3.27;;
1509;SDS011;746;48.688;9.428;2023-07-20T06:15:38;4.70;;;3.07;;
1509;SDS011;746;48.688;9.428;2023-07-20T06:18:00;3.50;;;2.97;;
1509;SDS011;746;48.688;9.428;2023-07-20T06:20:23;5.83;;;3.07;;
1509;SDS011;746;48.688;9.428;2023-07-20T06:22:44;5.37;;;3.00;;
1509;SDS011;746;48.688;9.428;2023-07-20T06:25:06;3.27;;;3.07;;
1509;SDS011;746;48.688;9.428;2023-07-20T06:27:27;3.23;;;3.03;;
1509;SDS011;746;48.688;9.428;2023-07-20T06:29:52;4.00;;;2.80;;
1509;SDS011;746;48.688;9.428;2023-07-20T06:32:13;3.20;;;3.00;;
1509;SDS011;746;48.688;9.428;2023-07-20T06:34:35;3.17;;;2.87;;
1509;SDS011;746;48.688;9.428;2023-07-20T06:36:57;4.03;;;3.23;;
1509;SDS011;746;48.688;9.428;2023-07-20T06:39:19;3.00;;;2.80;;
1509;SDS011;746;48.688;9.428;2023-07-20T06:41:44;4.97;;;2.90;;
1509;SDS011;746;48.688;9.428;2023-07-20T06:44:05;3.13;;;2.83;;
1509;SDS011;746;48.688;9.428;2023-07-20T06:46:29;3.60;;;3.07;;
1509;SDS011;746;48.688;9.428;2023-07-20T06:48:50;4.87;;;3.00;;
1509;SDS011;746;48.688;9.428;2023-07-20T06:51:14;3.00;;;2.80;;
1509;SDS011;746;48.688;9.428;2023-07-20T06:53:36;3.27;;;2.93;;
1509;SDS011;746;48.688;9.428;2023-07-20T06:55:57;4.10;;;2.90;;
1509;SDS011;746;48.688;9.428;2023-07-20T06:58:19;4.13;;;3.17;;
1509;SDS011;746;48.688;9.428;2023-07-20T07:00:41;2.80;;;2.60;;
1509;SDS011;746;48.688;9.428;2023-07-20T07:03:04;4.37;;;2.83;;
1509;SDS011;746;48.688;9.428;2023-07-20T07:05:25;4.50;;;3.17;;
1509;SDS011;746;48.688;9.428;2023-07-20T07:07:55;3.77;;;2.77;;
1509;SDS011;746;48.688;9.428;2023-07-20T07:10:17;3.43;;;2.70;;
1509;SDS011;746;48.688;9.428;2023-07-20T07:12:38;4.93;;;2.77;;
1509;SDS011;746;48.688;9.428;2023-07-20T07:14:59;3.00;;;2.80;;
1509;SDS011;746;48.688;9.428;2023-07-20T07:17:21;2.87;;;2.57;;
1509;SDS011;746;48.688;9.428;2023-07-20T07:19:43;3.20;;;2.90;;
1509;SDS011;746;48.688;9.428;2023-07-20T07:22:08;2.90;;;2.50;;
1509;SDS011;746;48.688;9.428;2023-07-20T07:24:29;3.87;;;2.50;;
1509;SDS011;746;48.688;9.428;2023-07-20T07:26:54;4.13;;;2.50;;
1509;SDS011;746;48.688;9.428;2023-07-20T07:29:15;5.03;;;2.77;;
1509;SDS011;746;48.688;9.428;2023-07-20T07:31:37;2.87;;;2.57;;
1509;SDS011;746;48.688;9.428;2023-07-20T07:33:58;3.50;;;2.60;;
1509;SDS011;746;48.688;9.428;2023-07-20T07:36:21;3.90;;;2.90;;
1509;SDS011;746;48.688;9.428;2023-07-20T07:38:44;4.10;;;2.57;;
1509;SDS011;746;48.688;9.428;2023-07-20T07:41:25;2.63;;;2.50;;
1509;SDS011;746;48.688;9.428;2023-07-20T07:43:47;3.47;;;2.47;;
1509;SDS011;746;48.688;9.428;2023-07-20T07:46:08;3.27;;;2.70;;
1509;SDS011;746;48.688;9.428;2023-07-20T07:48:29;5.03;;;2.80;;
1509;SDS011;746;48.688;9.428;2023-07-20T07:50:51;3.03;;;2.73;;
1509;SDS011;746;48.688;9.428;2023-07-20T07:53:13;3.43;;;2.50;;
1509;SDS011;746;48.688;9.428;2023-07-20T07:55:35;2.60;;;2.40;;
1509;SDS011;746;48.688;9.428;2023-07-20T07:57:56;2.90;;;2.70;;
1509;SDS011;746;48.688;9.428;2023-07-20T08:00:18;2.90;;;2.70;;
1509;SDS011;746;48.688;9.428;2023-07-20T08:02:40;3.10;;;2.67;;
1509;SDS011;746;48.688;9.428;2023-07-20T08:05:01;3.07;;;2.77;;
1509;SDS011;746;48.688;9.428;2023-07-20T08:07:22;3.27;;;2.50;;
1509;SDS011;746;48.688;9.428;2023-07-20T08:09:45;3.17;;;2.83;;
1509;SDS011;746;48.688;9.428;2023-07-20T08:12:06;3.00;;;2.70;;
1509;SDS011;746;48.688;9.428;2023-07-20T08:14:27;2.83;;;2.63;;
1509;SDS011;746;48.688;9.428;2023-07-20T08:16:49;3.00;;;2.80;;
1509;SDS011;746;48.688;9.428;2023-07-20T08:19:10;3.80;;;2.70;;
1509;SDS011;746;48.688;9.428;2023-07-20T08:21:31;2.67;;;2.47;;
1509;SDS011;746;48.688;9.428;2023-07-20T08:23:52;3.60;;;2.60;;
1509;SDS011;746;48.688;9.428;2023-07-20T08:26:15;2.50;;;2.40;;
1509;SDS011;746;48.688;9.428;2023-07-20T08:28:36;2.83;;;2.60;;
1509;SDS011;746;48.688;9.428;2023-07-20T08:30:58;3.00;;;2.80;;
1509;SDS011;746;48.688;9.428;2023-07-20T08:33:19;3.53;;;2.90;;
1509;SDS011;746;48.688;9.428;2023-07-20T08:35:41;3.33;;;3.03;;
1509;SDS011;746;48.688;9.428;2023-07-20T08:38:02;2.73;;;2.53;;
1509;SDS011;746;48.688;9.428;2023-07-20T08:40:24;3.67;;;2.97;;
1509;SDS011;746;48.688;9.428;2023-07-20T08:42:47;4.87;;;2.83;;
1509;SDS011;746;48.688;9.428;2023-07-20T08:45:08;2.97;;;2.70;;
1509;SDS011;746;48.688;9.428;2023-07-20T08:47:30;4.63;;;3.03;;
1509;SDS011;746;48.688;9.428;2023-07-20T08:49:51;3.50;;;3.20;;
1509;SDS011;746;48.688;9.428;2023-07-20T08:52:13;4.20;;;2.80;;
1509;SDS011;746;48.688;9.428;2023-07-20T08:54:34;6.07;;;2.90;;
1509;SDS011;746;48.688;9.428;2023-07-20T08:56:56;3.60;;;3.20;;
1509;SDS011;746;48.688;9.428;2023-07-20T08:59:19;9.33;;;3.30;;
1509;SDS011;746;48.688;9.428;2023-07-20T09:01:41;3.10;;;2.70;;
1509;SDS011;746;48.688;9.428;2023-07-20T09:04:02;5.87;;;3.50;;
1509;SDS011;746;48.688;9.428;2023-07-20T09:06:24;3.60;;;3.30;;
1509;SDS011;746;48.688;9.428;2023-07-20T09:08:46;4.60;;;2.73;;
1509;SDS011;746;48.688;9.428;2023-07-20T09:11:11;2.83;;;2.60;;
1509;SDS011;746;48.688;9.428;2023-07-20T09:13:33;3.33;;;2.60;;
1509;SDS011;746;48.688;9.428;2023-07-20T09:15:56;2.93;;;2.60;;
1509;SDS011;746;48.688;9.428;2023-07-20T09:18:26;3.83;;;3.33;;
1509;SDS011;746;48.688;9.428;2023-07-20T09:20:47;10.33;;;3.13;;
1509;SDS011;746;48.688;9.428;2023-07-20T09:23:09;3.07;;;2.83;;
1509;SDS011;746;48.688;9.428;2023-07-20T09:25:30;3.10;;;2.80;;
1509;SDS011;746;48.688;9.428;2023-07-20T09:27:51;4.70;;;2.97;;
1509;SDS011;746;48.688;9.428;2023-07-20T09:30:14;3.47;;;2.70;;
1509;SDS011;746;48.688;9.428;2023-07-20T09:32:39;3.27;;;3.00;;
1509;SDS011;746;48.688;9.428;2023-07-20T09:35:13;2.87;;;2.67;;
1509;SDS011;746;48.688;9.428;2023-07-20T09:37:38;3.60;;;3.13;;
1509;SDS011;746;48.688;9.428;2023-07-20T09:39:59;3.87;;;2.73;;
1509;SDS011;746;48.688;9.428;2023-07-20T09:42:24;3.33;;;2.80;;
1509;SDS011;746;48.688;9.428;2023-07-20T09:44:49;4.60;;;2.50;;
1509;SDS011;746;48.688;9.428;2023-07-20T09:47:11;6.27;;;2.97;;
1509;SDS011;746;48.688;9.428;2023-07-20T09:49:37;5.73;;;2.90;;
1509;SDS011;746;48.688;9.428;2023-07-20T09:52:03;3.93;;;2.77;;
1509;SDS011;746;48.688;9.428;2023-07-20T09:54:24;7.03;;;2.83;;
1509;SDS011;746;48.688;9.428;2023-07-20T09:56:48;3.70;;;2.90;;
1509;SDS011;746;48.688;9.428;2023-07-20T09:59:09;3.13;;;2.87;;
1509;SDS011;746;48.688;9.428;2023-07-20T10:01:30;3.33;;;3.13;;
1509;SDS011;746;48.688;9.428;2023-07-20T10:03:53;2.93;;;2.67;;
1509;SDS011;746;48.688;9.428;2023-07-20T10:06:17;3.43;;;3.00;;
1509;SDS011;746;48.688;9.428;2023-07-20T10:08:41;3.33;;;3.03;;
1509;SDS011;746;48.688;9.428;2023-07-20T10:11:06;3.93;;;3.00;;
1509;SDS011;746;48.688;9.428;2023-07-20T10:13:28;4.03;;;3.03;;
1509;SDS011;746;48.688;9.428;2023-07-20T10:15:50;3.13;;;2.83;;
1509;SDS011;746;48.688;9.428;2023-07-20T10:18:12;2.80;;;2.60;;
1509;SDS011;746;48.688;9.428;2023-07-20T10:20:36;2.67;;;2.40;;
1509;SDS011;746;48.688;9.428;2023-07-20T10:23:22;2.97;;;2.77;;
1509;SDS011;746;48.688;9.428;2023-07-20T10:25:43;5.13;;;2.60;;
1509;SDS011;746;48.688;9.428;2023-07-20T10:28:05;3.77;;;2.83;;
1509;SDS011;746;48.688;9.428;2023-07-20T10:30:27;2.90;;;2.70;;
1509;SDS011;746;48.688;9.428;2023-07-20T10:32:48;3.17;;;2.83;;
1509;SDS011;746;48.688;9.428;2023-07-20T10:35:13;2.97;;;2.77;;
1509;SDS011;746;48.688;9.428;2023-07-20T10:37:54;4.30;;;3.13;;
1509;SDS011;746;48.688;9.428;2023-07-20T10:40:30;3.10;;;2.90;;
1509;SDS011;746;48.688;9.428;2023-07-20T10:42:55;3.03;;;2.83;;
1509;SDS011;746;48.688;9.428;2023-07-20T10:45:16;3.30;;;3.10;;
1509;SDS011;746;48.688;9.428;2023-07-20T10:47:44;3.33;;;2.87;;
1509;SDS011;746;48.688;9.428;2023-07-20T10:50:07;3.73;;;2.60;;
1509;SDS011;746;48.688;9.428;2023-07-20T10:52:36;3.40;;;2.83;;
1509;SDS011;746;48.688;9.428;2023-07-20T10:54:59;2.53;;;2.33;;
1509;SDS011;746;48.688;9.428;2023-07-20T10:57:32;3.30;;;2.50;;
1509;SDS011;746;48.688;9.428;2023-07-20T10:59:56;3.10;;;2.73;;
1509;SDS011;746;48.688;9.428;2023-07-20T11:02:27;2.70;;;2.50;;
1509;SDS011;746;48.688;9.428;2023-07-20T11:04:48;3.17;;;2.80;;
1509;SDS011;746;48.688;9.428;2023-07-20T11:07:10;2.80;;;2.60;;
1509;SDS011;746;48.688;9.428;2023-07-20T11:09:36;3.27;;;2.47;;
1509;SDS011;746;48.688;9.428;2023-07-20T11:12:08;2.70;;;2.50;;
1509;SDS011;746;48.688;9.428;2023-07-20T11:14:31;3.67;;;2.63;;
1509;SDS011;746;48.688;9.428;2023-07-20T11:16:54;4.27;;;2.40;;
1509;SDS011;746;48.688;9.428;2023-07-20T11:19:16;3.07;;;2.30;;
1509;SDS011;746;48.688;9.428;2023-07-20T11:21:41;2.37;;;2.17;;
1509;SDS011;746;48.688;9.428;2023-07-20T11:24:21;3.10;;;2.30;;
1509;SDS011;746;48.688;9.428;2023-07-20T11:26:43;2.60;;;2.40;;
1509;SDS011;746;48.688;9.428;2023-07-20T11:29:04;2.33;;;2.13;;
1509;SDS011;746;48.688;9.428;2023-07-20T11:31:45;2.40;;;2.20;;
1509;SDS011;746;48.688;9.428;2023-07-20T11:34:09;2.50;;;2.30;;
1509;SDS011;746;48.688;9.428;2023-07-20T11:36:32;2.67;;;2.43;;
1509;SDS011;746;48.688;9.428;2023-07-20T11:38:57;2.57;;;2.37;;
1509;SDS011;746;48.688;9.428;2023-07-20T11:41:18;3.87;;;2.30;;
1509;SDS011;746;48.688;9.428;2023-07-20T11:43:40;2.67;;;2.20;;
1509;SDS011;746;48.688;9.428;2023-07-20T11:46:02;2.30;;;2.03;;
1509;SDS011;746;48.688;9.428;2023-07-20T11:48:25;4.83;;;2.20;;
1509;SDS011;746;48.688;9.428;2023-07-20T11:50:46;2.33;;;2.13;;
1509;SDS011;746;48.688;9.428;2023-07-20T11:53:08;8.33;;;2.10;;
1509;SDS011;746;48.688;9.428;2023-07-20T11:55:29;2.40;;;2.20;;
1509;SDS011;746;48.688;9.428;2023-07-20T11:58:03;2.37;;;2.27;;
1509;SDS011;746;48.688;9.428;2023-07-20T12:00:25;2.70;;;2.23;;
1509;SDS011;746;48.688;9.428;2023-07-20T12:02:47;2.30;;;2.10;;
1509;SDS011;746;48.688;9.428;2023-07-20T12:05:11;2.80;;;2.30;;
1509;SDS011;746;48.688;9.428;2023-07-20T12:07:34;2.30;;;2.20;;
1509;SDS011;746;48.688;9.428;2023-07-20T12:10:05;2.40;;;2.30;;
1509;SDS011;746;48.688;9.428;2023-07-20T12:12:27;2.87;;;2.20;;
1509;SDS011;746;48.688;9.428;2023-07-20T12:14:48;2.47;;;2.30;;
1509;SDS011;746;48.688;9.428;2023-07-20T12:17:09;2.50;;;2.30;;
1509;SDS011;746;48.688;9.428;2023-07-20T12:19:30;2.27;;;2.07;;
1509;SDS011;746;48.688;9.428;2023-07-20T12:21:56;4.70;;;2.00;;
1509;SDS011;746;48.688;9.428;2023-07-20T12:24:18;3.67;;;2.00;;
1509;SDS011;746;48.688;9.428;2023-07-20T12:26:40;5.50;;;2.00;;
1509;SDS011;746;48.688;9.428;2023-07-20T12:29:01;2.30;;;2.20;;
1509;SDS011;746;48.688;9.428;2023-07-20T12:31:24;1.90;;;1.80;;
1509;SDS011;746;48.688;9.428;2023-07-20T12:33:46;2.83;;;1.97;;
1509;SDS011;746;48.688;9.428;2023-07-20T12:36:08;2.07;;;1.97;;
1509;SDS011;746;48.688;9.428;2023-07-20T12:38:30;2.13;;;1.90;;
1509;SDS011;746;48.688;9.428;2023-07-20T12:40:51;1.80;;;1.70;;
1509;SDS011;746;48.688;9.428;2023-07-20T12:43:14;2.17;;;2.07;;
1509;SDS011;746;48.688;9.428;2023-07-20T12:45:35;1.90;;;1.80;;
1509;SDS011;746;48.688;9.428;2023-07-20T12:47:57;3.23;;;1.73;;
1509;SDS011;746;48.688;9.428;2023-07-20T12:50:18;2.90;;;1.90;;
1509;SDS011;746;48.688;9.428;2023-07-20T12:52:40;2.50;;;1.80;;
1509;SDS011;746;48.688;9.428;2023-07-20T12:55:03;2.07;;;1.97;;
1509;SDS011;746;48.688;9.428;2023-07-20T12:57:24;2.67;;;1.97;;
1509;SDS011;746;48.688;9.428;2023-07-20T12:59:45;2.57;;;1.77;;
1509;SDS011;746;48.688;9.428;2023-07-20T13:02:07;5.00;;;2.40;;
1509;SDS011;746;48.688;9.428;2023-07-20T13:04:28;3.40;;;1.90;;
1509;SDS011;746;48.688;9.428;2023-07-20T13:06:49;2.10;;;2.00;;
1509;SDS011;746;48.688;9.428;2023-07-20T13:09:11;2.03;;;1.93;;
1509;SDS011;746;48.688;9.428;2023-07-20T13:11:33;2.23;;;1.90;;
1509;SDS011;746;48.688;9.428;2023-07-20T13:13:55;2.20;;;2.10;;
1509;SDS011;746;48.688;9.428;2023-07-20T13:16:16;2.17;;;2.07;;
1509;SDS011;746;48.688;9.428;2023-07-20T13:18:37;1.93;;;1.83;;
1509;SDS011;746;48.688;9.428;2023-07-20T13:20:58;2.07;;;1.97;;
1509;SDS011;746;48.688;9.428;2023-07-20T13:23:20;2.27;;;1.93;;
1509;SDS011;746;48.688;9.428;2023-07-20T13:25:41;8.00;;;2.00;;
1509;SDS011;746;48.688;9.428;2023-07-20T13:28:04;2.10;;;1.90;;
1509;SDS011;746;48.688;9.428;2023-07-20T13:30:26;1.80;;;1.70;;
1509;SDS011;746;48.688;9.428;2023-07-20T13:32:47;2.17;;;1.70;;
1509;SDS011;746;48.688;9.428;2023-07-20T13:35:10;2.50;;;1.90;;
1509;SDS011;746;48.688;9.428;2023-07-20T13:37:31;2.20;;;1.90;;
1509;SDS011;746;48.688;9.428;2023-07-20T13:39:53;2.10;;;1.87;;
1509;SDS011;746;48.688;9.428;2023-07-20T13:42:16;3.10;;;1.80;;
1509;SDS011;746;48.688;9.428;2023-07-20T13:44:40;1.93;;;1.83;;
1509;SDS011;746;48.688;9.428;2023-07-20T13:47:01;2.03;;;1.93;;
1509;SDS011;746;48.688;9.428;2023-07-20T13:49:25;2.53;;;1.90;;
1509;SDS011;746;48.688;9.428;2023-07-20T13:51:47;1.80;;;1.70;;
1509;SDS011;746;48.688;9.428;2023-07-20T13:54:28;1.80;;;1.70;;
1509;SDS011;746;48.688;9.428;2023-07-20T13:56:49;2.23;;;1.90;;
1509;SDS011;746;48.688;9.428;2023-07-20T13:59:11;1.73;;;1.67;;
1509;SDS011;746;48.688;9.428;2023-07-20T14:01:35;3.07;;;2.03;;
1509;SDS011;746;48.688;9.428;2023-07-20T14:03:58;1.80;;;1.70;;
1509;SDS011;746;48.688;9.428;2023-07-20T14:06:24;1.93;;;1.90;;
1509;SDS011;746;48.688;9.428;2023-07-20T14:08:50;1.90;;;1.80;;
1509;SDS011;746;48.688;9.428;2023-07-20T14:11:13;1.97;;;1.70;;
1509;SDS011;746;48.688;9.428;2023-07-20T14:13:36;2.27;;;1.90;;
1509;SDS011;746;48.688;9.428;2023-07-20T14:16:06;4.73;;;1.90;;
1509;SDS011;746;48.688;9.428;2023-07-20T14:18:29;1.90;;;1.80;;
1509;SDS011;746;48.688;9.428;2023-07-20T14:20:52;1.70;;;1.60;;
1509;SDS011;746;48.688;9.428;2023-07-20T14:23:13;3.17;;;1.97;;
1509;SDS011;746;48.688;9.428;2023-07-20T14:25:34;1.90;;;1.80;;
1509;SDS011;746;48.688;9.428;2023-07-20T14:27:57;5.27;;;1.80;;
1509;SDS011;746;48.688;9.428;2023-07-20T14:30:19;1.87;;;1.73;;
1509;SDS011;746;48.688;9.428;2023-07-20T14:32:40;2.17;;;2.00;;
1509;SDS011;746;48.688;9.428;2023-07-20T14:35:03;1.80;;;1.70;;
1509;SDS011;746;48.688;9.428;2023-07-20T14:37:25;3.63;;;2.00;;
1509;SDS011;746;48.688;9.428;2023-07-20T14:39:48;2.00;;;1.80;;
1509;SDS011;746;48.688;9.428;2023-07-20T14:42:09;2.40;;;2.00;;
1509;SDS011;746;48.688;9.428;2023-07-20T14:44:30;1.80;;;1.70;;
1509;SDS011;746;48.688;9.428;2023-07-20T14:46:52;2.17;;;2.07;;
1509;SDS011;746;48.688;9.428;2023-07-20T14:49:32;2.00;;;1.90;;
1509;SDS011;746;48.688;9.428;2023-07-20T14:51:55;2.07;;;1.90;;
1509;SDS011;746;48.688;9.428;2023-07-20T14:54:20;2.93;;;1.83;;
1509;SDS011;746;48.688;9.428;2023-07-20T14:56:48;2.07;;;1.90;;
1509;SDS011;746;48.688;9.428;2023-07-20T14:59:09;1.87;;;1.80;;
1509;SDS011;746;48.688;9.428;2023-07-20T15:01:31;3.63;;;2.00;;
1509;SDS011;746;48.688;9.428;2023-07-20T15:03:52;1.90;;;1.80;;